Framingham, MA (01702)

12:14 AM EST on December 25, 2014 (GMT -0500)
Framingham near Rt30/126 | Change Station
CLOSE
Current Station
Personal Weather Station
Location: Framingham, MA
Elevation: 265 ft
Nearby Weather Stations
Active Advisory: Areal Flood Watch Active Notice: Public Information Statement

Elev 265 ft 42.31 °N, 71.41 °W | Updated 3 minutes ago

Overcast
Overcast
41.5 °F
Feels Like 42 °F
N
2.0
Wind Variable Wind from West
Gusts 5.0 mph

Today
High -- | Low -- °F
--% Chance of Precip.
Yesterday
High -- | Low -- °F
Precip. -- in
7:13 AM 4:18 PM
Waxing Crescent, 13% visible
Pressure 29.54 in
Visibility 8.0 miles
Clouds Overcast 1000 ft
Windchill 42 °F
Dew Point 41 °F
Humidity 97%
Rainfall 0.43 in
Snow Depth Not available.
UV 0 out of 12
Pollen .10 out of 12
Air Quality Not available.
Flu Activity Not available.
METAR KOWD 250453Z AUTO 19010KT 8SM OVC010 17/16 A2954 RMK AO2 RAE01B18E28 CIG 007V014 SLP001 P0000 T01720161 401720050

More Conditions Fewer Conditions

Pressure 29.54 in
Visibility 8.0 miles
Clouds Overcast 1000 ft
Windchill 42 °F
Dew Point 41 °F
Humidity 97%
Rainfall 0.43 in
Snow Depth Not available.
UV 0 out of 12
Pollen .10 out of 12
Air Quality Not available.
Flu Activity Not available.
METAR KOWD 250453Z AUTO 19010KT 8SM OVC010 17/16 A2954 RMK AO2 RAE01B18E28 CIG 007V014 SLP001 P0000 T01720161 401720050

More Conditions Fewer Conditions

10-Day Weather Forecast

Almanac

Astronomy

Dec. 25, 2014 Rise Set
Actual Time
Civil Twilight
Nautical Twilight
Astronomical Twilight
Moon
Length of Visible Light
Length of Day
Tomorrow will be .
, % of the Moon is Illuminated

Today's Extremes

State Highs State Lows

Community

WunderPhotos

Upload Photos

1,780,244 photos uploaded!

WunderBlogs® & News

Nearby

Air Quality

  Air Quality AQ Index Pollutant
Not available.

Snow Depth

Station Depth Elevation

Earthquake Activity

City Distance Mag. Time & Date
Minimum magnitude displayed is 2.5.

Coastal Water Temperatures

Place Temperature

Nearby Weather Stations